YPPD/PHE METAR and TAF weather

Enter ICAO airport designator
Station Type Date Time Source
YPPD METAR 2021/10/20 07:00 UTC NOAA

YPPD 200700Z AUTO 31017KT 9999 // NCD 30/13 Q1011 RF00.0/000.0


Station Type Date Time Source
YPPD Decoded METAR 2021/10/20 07:00 UTC NOAA

Port Hedland Pardoo, Australia (YPPD) 20-06S 119-34E 10M
Oct 20, 2021 - 03:00 AM EDT / 2021.10.20 0700 UTC
Wind: from the NW (310 degrees) at 20 MPH (17 KT):0
Visibility: greater than 7 mile(s):0
Temperature: 86 F (30 C)
Dew Point: 55 F (13 C)
Relative Humidity: 35%
Pressure (altimeter): 29.85 in. Hg (1011 hPa)
ob: YPPD 200700Z AUTO 31017KT 9999 // NCD 30/13 Q1011 RF00.0/000.0
cycle: 7

Station Type Date Time Source
YPPD TAF 2021/10/20 05:24 UTC NOAA

TAF
AMD YPPD 200522Z 2005/2106 31018KT CAVOK
FM201200 27012KT CAVOK
FM201700 17008KT CAVOK
FM210000 14012KT CAVOK
FM210330 31018KT CAVOK

Example: see airport list